<?xml version="1.0" encoding="UTF-8" ?>
<gpx version="1.1" xmlns:xsi="http://www.w3.org/2001/XMLSchema-instance" 
    xmlns="http://www.topografix.com/GPX/1/1"
    xsi:schemaLocation="http://www.topografix.com/GPX/1/1 http://www.topografix.com/GPX/1/1/gpx.xsd" 
    creator="Openrunner - https://www.openrunner.com" >	<trk>
	                   <name>Parcours trail 28,2 kms-18281819</name>
						<trkseg>
					<trkpt lat="48.648450" lon="-0.945230">
						<ele>199</ele>
						<time>2025-09-16T10:21:13Z</time>
					</trkpt>
					<trkpt lat="48.648440" lon="-0.944970">
						<ele>201</ele>
						<time>2025-09-16T10:21:22Z</time>
					</trkpt>
					<trkpt lat="48.648310" lon="-0.944820">
						<ele>203</ele>
						<time>2025-09-16T10:21:30Z</time>
					</trkpt>
					<trkpt lat="48.648090" lon="-0.945040">
						<ele>200</ele>
						<time>2025-09-16T10:21:43Z</time>
					</trkpt>
					<trkpt lat="48.647860" lon="-0.945110">
						<ele>197</ele>
						<time>2025-09-16T10:21:55Z</time>
					</trkpt>
					<trkpt lat="48.647870" lon="-0.945570">
						<ele>192</ele>
						<time>2025-09-16T10:22:10Z</time>
					</trkpt>
					<trkpt lat="48.648120" lon="-0.945930">
						<ele>190</ele>
						<time>2025-09-16T10:22:27Z</time>
					</trkpt>
					<trkpt lat="48.648520" lon="-0.946250">
						<ele>185</ele>
						<time>2025-09-16T10:22:50Z</time>
					</trkpt>
					<trkpt lat="48.648830" lon="-0.946400">
						<ele>180</ele>
						<time>2025-09-16T10:23:06Z</time>
					</trkpt>
					<trkpt lat="48.649320" lon="-0.946580">
						<ele>176</ele>
						<time>2025-09-16T10:23:31Z</time>
					</trkpt>
					<trkpt lat="48.649490" lon="-0.946680">
						<ele>175</ele>
						<time>2025-09-16T10:23:40Z</time>
					</trkpt>
					<trkpt lat="48.649590" lon="-0.946890">
						<ele>175</ele>
						<time>2025-09-16T10:23:49Z</time>
					</trkpt>
					<trkpt lat="48.649700" lon="-0.946960">
						<ele>176</ele>
						<time>2025-09-16T10:23:55Z</time>
					</trkpt>
					<trkpt lat="48.649930" lon="-0.947020">
						<ele>179</ele>
						<time>2025-09-16T10:24:07Z</time>
					</trkpt>
					<trkpt lat="48.650050" lon="-0.946930">
						<ele>180</ele>
						<time>2025-09-16T10:24:13Z</time>
					</trkpt>
					<trkpt lat="48.650160" lon="-0.946960">
						<ele>182</ele>
						<time>2025-09-16T10:24:19Z</time>
					</trkpt>
					<trkpt lat="48.650310" lon="-0.946980">
						<ele>184</ele>
						<time>2025-09-16T10:24:27Z</time>
					</trkpt>
					<trkpt lat="48.650360" lon="-0.947110">
						<ele>185</ele>
						<time>2025-09-16T10:24:32Z</time>
					</trkpt>
					<trkpt lat="48.650360" lon="-0.947170">
						<ele>186</ele>
						<time>2025-09-16T10:24:33Z</time>
					</trkpt>
					<trkpt lat="48.650330" lon="-0.947460">
						<ele>187</ele>
						<time>2025-09-16T10:24:43Z</time>
					</trkpt>
					<trkpt lat="48.650510" lon="-0.947550">
						<ele>190</ele>
						<time>2025-09-16T10:24:53Z</time>
					</trkpt>
					<trkpt lat="48.650690" lon="-0.947540">
						<ele>191</ele>
						<time>2025-09-16T10:25:02Z</time>
					</trkpt>
					<trkpt lat="48.650810" lon="-0.947590">
						<ele>193</ele>
						<time>2025-09-16T10:25:08Z</time>
					</trkpt>
					<trkpt lat="48.651000" lon="-0.947770">
						<ele>196</ele>
						<time>2025-09-16T10:25:19Z</time>
					</trkpt>
					<trkpt lat="48.651180" lon="-0.947350">
						<ele>196</ele>
						<time>2025-09-16T10:25:36Z</time>
					</trkpt>
					<trkpt lat="48.651260" lon="-0.946730">
						<ele>198</ele>
						<time>2025-09-16T10:25:57Z</time>
					</trkpt>
					<trkpt lat="48.651000" lon="-0.946710">
						<ele>194</ele>
						<time>2025-09-16T10:26:10Z</time>
					</trkpt>
					<trkpt lat="48.650760" lon="-0.946560">
						<ele>189</ele>
						<time>2025-09-16T10:26:23Z</time>
					</trkpt>
					<trkpt lat="48.650550" lon="-0.946150">
						<ele>184</ele>
						<time>2025-09-16T10:26:40Z</time>
					</trkpt>
					<trkpt lat="48.650460" lon="-0.945770">
						<ele>181</ele>
						<time>2025-09-16T10:26:53Z</time>
					</trkpt>
					<trkpt lat="48.650400" lon="-0.945350">
						<ele>179</ele>
						<time>2025-09-16T10:27:07Z</time>
					</trkpt>
					<trkpt lat="48.650200" lon="-0.945000">
						<ele>175</ele>
						<time>2025-09-16T10:27:23Z</time>
					</trkpt>
					<trkpt lat="48.649890" lon="-0.944590">
						<ele>179</ele>
						<time>2025-09-16T10:27:43Z</time>
					</trkpt>
					<trkpt lat="48.649770" lon="-0.944590">
						<ele>181</ele>
						<time>2025-09-16T10:27:49Z</time>
					</trkpt>
					<trkpt lat="48.649170" lon="-0.944960">
						<ele>191</ele>
						<time>2025-09-16T10:28:22Z</time>
					</trkpt>
					<trkpt lat="48.649040" lon="-0.944460">
						<ele>195</ele>
						<time>2025-09-16T10:28:39Z</time>
					</trkpt>
					<trkpt lat="48.648850" lon="-0.944160">
						<ele>199</ele>
						<time>2025-09-16T10:28:53Z</time>
					</trkpt>
					<trkpt lat="48.648660" lon="-0.943820">
						<ele>205</ele>
						<time>2025-09-16T10:29:08Z</time>
					</trkpt>
					<trkpt lat="48.648780" lon="-0.943730">
						<ele>205</ele>
						<time>2025-09-16T10:29:15Z</time>
					</trkpt>
					<trkpt lat="48.648930" lon="-0.943760">
						<ele>202</ele>
						<time>2025-09-16T10:29:22Z</time>
					</trkpt>
					<trkpt lat="48.649220" lon="-0.943670">
						<ele>200</ele>
						<time>2025-09-16T10:29:37Z</time>
					</trkpt>
					<trkpt lat="48.649490" lon="-0.943440">
						<ele>199</ele>
						<time>2025-09-16T10:29:52Z</time>
					</trkpt>
					<trkpt lat="48.649850" lon="-0.943040">
						<ele>201</ele>
						<time>2025-09-16T10:30:15Z</time>
					</trkpt>
					<trkpt lat="48.650170" lon="-0.942680">
						<ele>203</ele>
						<time>2025-09-16T10:30:35Z</time>
					</trkpt>
					<trkpt lat="48.650220" lon="-0.942610">
						<ele>203</ele>
						<time>2025-09-16T10:30:38Z</time>
					</trkpt>
					<trkpt lat="48.650410" lon="-0.942610">
						<ele>201</ele>
						<time>2025-09-16T10:30:48Z</time>
					</trkpt>
					<trkpt lat="48.650310" lon="-0.942040">
						<ele>209</ele>
						<time>2025-09-16T10:31:07Z</time>
					</trkpt>
					<trkpt lat="48.650010" lon="-0.941920">
						<ele>213</ele>
						<time>2025-09-16T10:31:23Z</time>
					</trkpt>
					<trkpt lat="48.649900" lon="-0.941620">
						<ele>216</ele>
						<time>2025-09-16T10:31:34Z</time>
					</trkpt>
					<trkpt lat="48.649830" lon="-0.941440">
						<ele>219</ele>
						<time>2025-09-16T10:31:41Z</time>
					</trkpt>
					<trkpt lat="48.650090" lon="-0.941230">
						<ele>220</ele>
						<time>2025-09-16T10:31:56Z</time>
					</trkpt>
					<trkpt lat="48.650400" lon="-0.940990">
						<ele>222</ele>
						<time>2025-09-16T10:32:13Z</time>
					</trkpt>
					<trkpt lat="48.650450" lon="-0.940880">
						<ele>224</ele>
						<time>2025-09-16T10:32:18Z</time>
					</trkpt>
					<trkpt lat="48.650970" lon="-0.940480">
						<ele>228</ele>
						<time>2025-09-16T10:32:47Z</time>
					</trkpt>
					<trkpt lat="48.650850" lon="-0.940060">
						<ele>233</ele>
						<time>2025-09-16T10:33:02Z</time>
					</trkpt>
					<trkpt lat="48.650990" lon="-0.939910">
						<ele>235</ele>
						<time>2025-09-16T10:33:10Z</time>
					</trkpt>
					<trkpt lat="48.650660" lon="-0.939660">
						<ele>240</ele>
						<time>2025-09-16T10:33:29Z</time>
					</trkpt>
					<trkpt lat="48.650470" lon="-0.939260">
						<ele>245</ele>
						<time>2025-09-16T10:33:45Z</time>
					</trkpt>
					<trkpt lat="48.650480" lon="-0.939110">
						<ele>247</ele>
						<time>2025-09-16T10:33:50Z</time>
					</trkpt>
					<trkpt lat="48.650440" lon="-0.938730">
						<ele>253</ele>
						<time>2025-09-16T10:34:03Z</time>
					</trkpt>
					<trkpt lat="48.651080" lon="-0.938710">
						<ele>254</ele>
						<time>2025-09-16T10:34:35Z</time>
					</trkpt>
					<trkpt lat="48.651460" lon="-0.938690">
						<ele>254</ele>
						<time>2025-09-16T10:34:54Z</time>
					</trkpt>
					<trkpt lat="48.651900" lon="-0.938580">
						<ele>255</ele>
						<time>2025-09-16T10:35:16Z</time>
					</trkpt>
					<trkpt lat="48.652470" lon="-0.938330">
						<ele>258</ele>
						<time>2025-09-16T10:35:46Z</time>
					</trkpt>
					<trkpt lat="48.653070" lon="-0.938080">
						<ele>262</ele>
						<time>2025-09-16T10:36:17Z</time>
					</trkpt>
					<trkpt lat="48.653440" lon="-0.937920">
						<ele>264</ele>
						<time>2025-09-16T10:36:36Z</time>
					</trkpt>
					<trkpt lat="48.653470" lon="-0.937650">
						<ele>266</ele>
						<time>2025-09-16T10:36:45Z</time>
					</trkpt>
					<trkpt lat="48.653690" lon="-0.936940">
						<ele>272</ele>
						<time>2025-09-16T10:37:11Z</time>
					</trkpt>
					<trkpt lat="48.653830" lon="-0.936540">
						<ele>276</ele>
						<time>2025-09-16T10:37:26Z</time>
					</trkpt>
					<trkpt lat="48.653960" lon="-0.936160">
						<ele>281</ele>
						<time>2025-09-16T10:37:40Z</time>
					</trkpt>
					<trkpt lat="48.654050" lon="-0.935810">
						<ele>286</ele>
						<time>2025-09-16T10:37:53Z</time>
					</trkpt>
					<trkpt lat="48.654120" lon="-0.935730">
						<ele>287</ele>
						<time>2025-09-16T10:37:57Z</time>
					</trkpt>
					<trkpt lat="48.653760" lon="-0.935410">
						<ele>290</ele>
						<time>2025-09-16T10:38:18Z</time>
					</trkpt>
					<trkpt lat="48.653280" lon="-0.935290">
						<ele>290</ele>
						<time>2025-09-16T10:38:42Z</time>
					</trkpt>
					<trkpt lat="48.652900" lon="-0.935220">
						<ele>291</ele>
						<time>2025-09-16T10:39:02Z</time>
					</trkpt>
					<trkpt lat="48.652260" lon="-0.935280">
						<ele>289</ele>
						<time>2025-09-16T10:39:34Z</time>
					</trkpt>
					<trkpt lat="48.651830" lon="-0.935140">
						<ele>289</ele>
						<time>2025-09-16T10:39:56Z</time>
					</trkpt>
					<trkpt lat="48.651490" lon="-0.934970">
						<ele>290</ele>
						<time>2025-09-16T10:40:14Z</time>
					</trkpt>
					<trkpt lat="48.650500" lon="-0.934690">
						<ele>293</ele>
						<time>2025-09-16T10:41:04Z</time>
					</trkpt>
					<trkpt lat="48.649640" lon="-0.934360">
						<ele>296</ele>
						<time>2025-09-16T10:41:48Z</time>
					</trkpt>
					<trkpt lat="48.649430" lon="-0.934270">
						<ele>296</ele>
						<time>2025-09-16T10:41:59Z</time>
					</trkpt>
					<trkpt lat="48.648690" lon="-0.934150">
						<ele>298</ele>
						<time>2025-09-16T10:42:37Z</time>
					</trkpt>
					<trkpt lat="48.648210" lon="-0.933810">
						<ele>304</ele>
						<time>2025-09-16T10:43:03Z</time>
					</trkpt>
					<trkpt lat="48.647710" lon="-0.933870">
						<ele>300</ele>
						<time>2025-09-16T10:43:28Z</time>
					</trkpt>
					<trkpt lat="48.647200" lon="-0.933970">
						<ele>298</ele>
						<time>2025-09-16T10:43:54Z</time>
					</trkpt>
					<trkpt lat="48.646330" lon="-0.934620">
						<ele>293</ele>
						<time>2025-09-16T10:44:43Z</time>
					</trkpt>
					<trkpt lat="48.646560" lon="-0.934100">
						<ele>300</ele>
						<time>2025-09-16T10:45:03Z</time>
					</trkpt>
					<trkpt lat="48.646850" lon="-0.933810">
						<ele>302</ele>
						<time>2025-09-16T10:45:21Z</time>
					</trkpt>
					<trkpt lat="48.647000" lon="-0.933630">
						<ele>304</ele>
						<time>2025-09-16T10:45:30Z</time>
					</trkpt>
					<trkpt lat="48.647200" lon="-0.933240">
						<ele>307</ele>
						<time>2025-09-16T10:45:47Z</time>
					</trkpt>
					<trkpt lat="48.647060" lon="-0.933260">
						<ele>308</ele>
						<time>2025-09-16T10:45:54Z</time>
					</trkpt>
					<trkpt lat="48.646890" lon="-0.933410">
						<ele>307</ele>
						<time>2025-09-16T10:46:03Z</time>
					</trkpt>
					<trkpt lat="48.646490" lon="-0.933390">
						<ele>309</ele>
						<time>2025-09-16T10:46:23Z</time>
					</trkpt>
					<trkpt lat="48.645970" lon="-0.933320">
						<ele>311</ele>
						<time>2025-09-16T10:46:50Z</time>
					</trkpt>
					<trkpt lat="48.645180" lon="-0.933240">
						<ele>315</ele>
						<time>2025-09-16T10:47:29Z</time>
					</trkpt>
					<trkpt lat="48.644520" lon="-0.933170">
						<ele>315</ele>
						<time>2025-09-16T10:48:02Z</time>
					</trkpt>
					<trkpt lat="48.644240" lon="-0.933150">
						<ele>315</ele>
						<time>2025-09-16T10:48:16Z</time>
					</trkpt>
					<trkpt lat="48.644030" lon="-0.933110">
						<ele>313</ele>
						<time>2025-09-16T10:48:27Z</time>
					</trkpt>
					<trkpt lat="48.643740" lon="-0.933080">
						<ele>309</ele>
						<time>2025-09-16T10:48:41Z</time>
					</trkpt>
					<trkpt lat="48.643670" lon="-0.933440">
						<ele>306</ele>
						<time>2025-09-16T10:48:54Z</time>
					</trkpt>
					<trkpt lat="48.643810" lon="-0.933620">
						<ele>305</ele>
						<time>2025-09-16T10:49:03Z</time>
					</trkpt>
					<trkpt lat="48.644060" lon="-0.933850">
						<ele>305</ele>
						<time>2025-09-16T10:49:18Z</time>
					</trkpt>
					<trkpt lat="48.644420" lon="-0.934260">
						<ele>300</ele>
						<time>2025-09-16T10:49:40Z</time>
					</trkpt>
					<trkpt lat="48.644150" lon="-0.934360">
						<ele>298</ele>
						<time>2025-09-16T10:49:54Z</time>
					</trkpt>
					<trkpt lat="48.643930" lon="-0.934380">
						<ele>294</ele>
						<time>2025-09-16T10:50:05Z</time>
					</trkpt>
					<trkpt lat="48.643530" lon="-0.934200">
						<ele>291</ele>
						<time>2025-09-16T10:50:26Z</time>
					</trkpt>
					<trkpt lat="48.643150" lon="-0.934090">
						<ele>286</ele>
						<time>2025-09-16T10:50:45Z</time>
					</trkpt>
					<trkpt lat="48.642900" lon="-0.933760">
						<ele>285</ele>
						<time>2025-09-16T10:51:02Z</time>
					</trkpt>
					<trkpt lat="48.642610" lon="-0.933140">
						<ele>282</ele>
						<time>2025-09-16T10:51:27Z</time>
					</trkpt>
					<trkpt lat="48.642460" lon="-0.932690">
						<ele>278</ele>
						<time>2025-09-16T10:51:44Z</time>
					</trkpt>
					<trkpt lat="48.642470" lon="-0.932250">
						<ele>277</ele>
						<time>2025-09-16T10:51:58Z</time>
					</trkpt>
					<trkpt lat="48.642730" lon="-0.932090">
						<ele>282</ele>
						<time>2025-09-16T10:52:12Z</time>
					</trkpt>
					<trkpt lat="48.642950" lon="-0.932010">
						<ele>286</ele>
						<time>2025-09-16T10:52:24Z</time>
					</trkpt>
					<trkpt lat="48.643060" lon="-0.932050">
						<ele>289</ele>
						<time>2025-09-16T10:52:29Z</time>
					</trkpt>
					<trkpt lat="48.642930" lon="-0.932460">
						<ele>292</ele>
						<time>2025-09-16T10:52:44Z</time>
					</trkpt>
					<trkpt lat="48.642970" lon="-0.932850">
						<ele>293</ele>
						<time>2025-09-16T10:52:57Z</time>
					</trkpt>
					<trkpt lat="48.643120" lon="-0.932930">
						<ele>297</ele>
						<time>2025-09-16T10:53:05Z</time>
					</trkpt>
					<trkpt lat="48.643230" lon="-0.932710">
						<ele>301</ele>
						<time>2025-09-16T10:53:15Z</time>
					</trkpt>
					<trkpt lat="48.643430" lon="-0.932660">
						<ele>305</ele>
						<time>2025-09-16T10:53:25Z</time>
					</trkpt>
					<trkpt lat="48.643500" lon="-0.932260">
						<ele>301</ele>
						<time>2025-09-16T10:53:38Z</time>
					</trkpt>
					<trkpt lat="48.643640" lon="-0.932120">
						<ele>300</ele>
						<time>2025-09-16T10:53:47Z</time>
					</trkpt>
					<trkpt lat="48.643870" lon="-0.932180">
						<ele>304</ele>
						<time>2025-09-16T10:53:58Z</time>
					</trkpt>
					<trkpt lat="48.644070" lon="-0.932550">
						<ele>312</ele>
						<time>2025-09-16T10:54:14Z</time>
					</trkpt>
					<trkpt lat="48.644390" lon="-0.932770">
						<ele>313</ele>
						<time>2025-09-16T10:54:32Z</time>
					</trkpt>
					<trkpt lat="48.644960" lon="-0.932880">
						<ele>313</ele>
						<time>2025-09-16T10:55:01Z</time>
					</trkpt>
					<trkpt lat="48.645540" lon="-0.932960">
						<ele>311</ele>
						<time>2025-09-16T10:55:30Z</time>
					</trkpt>
					<trkpt lat="48.646170" lon="-0.933040">
						<ele>309</ele>
						<time>2025-09-16T10:56:01Z</time>
					</trkpt>
					<trkpt lat="48.646490" lon="-0.933120">
						<ele>309</ele>
						<time>2025-09-16T10:56:18Z</time>
					</trkpt>
					<trkpt lat="48.646510" lon="-0.932780">
						<ele>309</ele>
						<time>2025-09-16T10:56:29Z</time>
					</trkpt>
					<trkpt lat="48.646490" lon="-0.932450">
						<ele>308</ele>
						<time>2025-09-16T10:56:40Z</time>
					</trkpt>
					<trkpt lat="48.646630" lon="-0.932450">
						<ele>308</ele>
						<time>2025-09-16T10:56:47Z</time>
					</trkpt>
					<trkpt lat="48.646770" lon="-0.932480">
						<ele>309</ele>
						<time>2025-09-16T10:56:54Z</time>
					</trkpt>
					<trkpt lat="48.646820" lon="-0.932670">
						<ele>309</ele>
						<time>2025-09-16T10:57:01Z</time>
					</trkpt>
					<trkpt lat="48.647270" lon="-0.932850">
						<ele>309</ele>
						<time>2025-09-16T10:57:24Z</time>
					</trkpt>
					<trkpt lat="48.647360" lon="-0.932650">
						<ele>309</ele>
						<time>2025-09-16T10:57:32Z</time>
					</trkpt>
					<trkpt lat="48.647480" lon="-0.932570">
						<ele>310</ele>
						<time>2025-09-16T10:57:39Z</time>
					</trkpt>
					<trkpt lat="48.647800" lon="-0.932560">
						<ele>312</ele>
						<time>2025-09-16T10:57:55Z</time>
					</trkpt>
					<trkpt lat="48.648020" lon="-0.933080">
						<ele>312</ele>
						<time>2025-09-16T10:58:15Z</time>
					</trkpt>
					<trkpt lat="48.648290" lon="-0.933440">
						<ele>311</ele>
						<time>2025-09-16T10:58:33Z</time>
					</trkpt>
					<trkpt lat="48.648680" lon="-0.933700">
						<ele>307</ele>
						<time>2025-09-16T10:58:54Z</time>
					</trkpt>
					<trkpt lat="48.649150" lon="-0.933620">
						<ele>309</ele>
						<time>2025-09-16T10:59:18Z</time>
					</trkpt>
					<trkpt lat="48.649550" lon="-0.933230">
						<ele>316</ele>
						<time>2025-09-16T10:59:42Z</time>
					</trkpt>
					<trkpt lat="48.649710" lon="-0.932840">
						<ele>317</ele>
						<time>2025-09-16T10:59:57Z</time>
					</trkpt>
					<trkpt lat="48.650160" lon="-0.932840">
						<ele>317</ele>
						<time>2025-09-16T11:00:20Z</time>
					</trkpt>
					<trkpt lat="48.650950" lon="-0.932420">
						<ele>316</ele>
						<time>2025-09-16T11:01:01Z</time>
					</trkpt>
					<trkpt lat="48.651230" lon="-0.932340">
						<ele>315</ele>
						<time>2025-09-16T11:01:16Z</time>
					</trkpt>
					<trkpt lat="48.651500" lon="-0.932290">
						<ele>315</ele>
						<time>2025-09-16T11:01:29Z</time>
					</trkpt>
					<trkpt lat="48.651690" lon="-0.932410">
						<ele>315</ele>
						<time>2025-09-16T11:01:40Z</time>
					</trkpt>
					<trkpt lat="48.653720" lon="-0.932690">
						<ele>310</ele>
						<time>2025-09-16T11:03:22Z</time>
					</trkpt>
					<trkpt lat="48.655160" lon="-0.932880">
						<ele>306</ele>
						<time>2025-09-16T11:04:34Z</time>
					</trkpt>
					<trkpt lat="48.656530" lon="-0.933080">
						<ele>309</ele>
						<time>2025-09-16T11:05:43Z</time>
					</trkpt>
					<trkpt lat="48.656190" lon="-0.933840">
						<ele>308</ele>
						<time>2025-09-16T11:06:13Z</time>
					</trkpt>
					<trkpt lat="48.655980" lon="-0.934750">
						<ele>302</ele>
						<time>2025-09-16T11:06:45Z</time>
					</trkpt>
					<trkpt lat="48.655870" lon="-0.935010">
						<ele>299</ele>
						<time>2025-09-16T11:06:55Z</time>
					</trkpt>
					<trkpt lat="48.654740" lon="-0.935710">
						<ele>286</ele>
						<time>2025-09-16T11:07:56Z</time>
					</trkpt>
					<trkpt lat="48.654600" lon="-0.936060">
						<ele>282</ele>
						<time>2025-09-16T11:08:10Z</time>
					</trkpt>
					<trkpt lat="48.654690" lon="-0.936550">
						<ele>276</ele>
						<time>2025-09-16T11:08:27Z</time>
					</trkpt>
					<trkpt lat="48.654810" lon="-0.937280">
						<ele>271</ele>
						<time>2025-09-16T11:08:52Z</time>
					</trkpt>
					<trkpt lat="48.656070" lon="-0.936780">
						<ele>278</ele>
						<time>2025-09-16T11:09:57Z</time>
					</trkpt>
					<trkpt lat="48.656950" lon="-0.936390">
						<ele>284</ele>
						<time>2025-09-16T11:10:43Z</time>
					</trkpt>
					<trkpt lat="48.657380" lon="-0.936040">
						<ele>287</ele>
						<time>2025-09-16T11:11:07Z</time>
					</trkpt>
					<trkpt lat="48.657850" lon="-0.936180">
						<ele>284</ele>
						<time>2025-09-16T11:11:31Z</time>
					</trkpt>
					<trkpt lat="48.658820" lon="-0.936500">
						<ele>280</ele>
						<time>2025-09-16T11:12:21Z</time>
					</trkpt>
					<trkpt lat="48.660200" lon="-0.937020">
						<ele>268</ele>
						<time>2025-09-16T11:13:32Z</time>
					</trkpt>
					<trkpt lat="48.660540" lon="-0.936880">
						<ele>265</ele>
						<time>2025-09-16T11:13:49Z</time>
					</trkpt>
					<trkpt lat="48.661920" lon="-0.935650">
						<ele>253</ele>
						<time>2025-09-16T11:15:10Z</time>
					</trkpt>
					<trkpt lat="48.662120" lon="-0.935500">
						<ele>251</ele>
						<time>2025-09-16T11:15:21Z</time>
					</trkpt>
					<trkpt lat="48.663050" lon="-0.934560">
						<ele>244</ele>
						<time>2025-09-16T11:16:17Z</time>
					</trkpt>
					<trkpt lat="48.663540" lon="-0.933910">
						<ele>242</ele>
						<time>2025-09-16T11:16:49Z</time>
					</trkpt>
					<trkpt lat="48.664330" lon="-0.933130">
						<ele>237</ele>
						<time>2025-09-16T11:17:37Z</time>
					</trkpt>
					<trkpt lat="48.665130" lon="-0.932360">
						<ele>233</ele>
						<time>2025-09-16T11:18:24Z</time>
					</trkpt>
					<trkpt lat="48.665480" lon="-0.932100">
						<ele>233</ele>
						<time>2025-09-16T11:18:43Z</time>
					</trkpt>
					<trkpt lat="48.666180" lon="-0.931870">
						<ele>233</ele>
						<time>2025-09-16T11:19:19Z</time>
					</trkpt>
					<trkpt lat="48.666570" lon="-0.931690">
						<ele>234</ele>
						<time>2025-09-16T11:19:40Z</time>
					</trkpt>
					<trkpt lat="48.666920" lon="-0.931010">
						<ele>236</ele>
						<time>2025-09-16T11:20:08Z</time>
					</trkpt>
					<trkpt lat="48.667360" lon="-0.930330">
						<ele>238</ele>
						<time>2025-09-16T11:20:40Z</time>
					</trkpt>
					<trkpt lat="48.667530" lon="-0.929620">
						<ele>238</ele>
						<time>2025-09-16T11:21:05Z</time>
					</trkpt>
					<trkpt lat="48.667840" lon="-0.929330">
						<ele>240</ele>
						<time>2025-09-16T11:21:23Z</time>
					</trkpt>
					<trkpt lat="48.668110" lon="-0.929490">
						<ele>242</ele>
						<time>2025-09-16T11:21:37Z</time>
					</trkpt>
					<trkpt lat="48.668240" lon="-0.929640">
						<ele>243</ele>
						<time>2025-09-16T11:21:46Z</time>
					</trkpt>
					<trkpt lat="48.669270" lon="-0.928660">
						<ele>249</ele>
						<time>2025-09-16T11:22:46Z</time>
					</trkpt>
					<trkpt lat="48.670270" lon="-0.927730">
						<ele>255</ele>
						<time>2025-09-16T11:23:45Z</time>
					</trkpt>
					<trkpt lat="48.670500" lon="-0.927780">
						<ele>257</ele>
						<time>2025-09-16T11:23:57Z</time>
					</trkpt>
					<trkpt lat="48.670710" lon="-0.927840">
						<ele>258</ele>
						<time>2025-09-16T11:24:07Z</time>
					</trkpt>
					<trkpt lat="48.670880" lon="-0.927660">
						<ele>258</ele>
						<time>2025-09-16T11:24:18Z</time>
					</trkpt>
					<trkpt lat="48.671780" lon="-0.926180">
						<ele>262</ele>
						<time>2025-09-16T11:25:24Z</time>
					</trkpt>
					<trkpt lat="48.672430" lon="-0.925050">
						<ele>267</ele>
						<time>2025-09-16T11:26:14Z</time>
					</trkpt>
					<trkpt lat="48.672810" lon="-0.924530">
						<ele>270</ele>
						<time>2025-09-16T11:26:40Z</time>
					</trkpt>
					<trkpt lat="48.673340" lon="-0.923910">
						<ele>274</ele>
						<time>2025-09-16T11:27:13Z</time>
					</trkpt>
					<trkpt lat="48.673780" lon="-0.923320">
						<ele>277</ele>
						<time>2025-09-16T11:27:42Z</time>
					</trkpt>
					<trkpt lat="48.674120" lon="-0.922790">
						<ele>277</ele>
						<time>2025-09-16T11:28:07Z</time>
					</trkpt>
					<trkpt lat="48.674380" lon="-0.922320">
						<ele>278</ele>
						<time>2025-09-16T11:28:27Z</time>
					</trkpt>
					<trkpt lat="48.675940" lon="-0.923040">
						<ele>291</ele>
						<time>2025-09-16T11:29:49Z</time>
					</trkpt>
					<trkpt lat="48.676720" lon="-0.923660">
						<ele>294</ele>
						<time>2025-09-16T11:30:33Z</time>
					</trkpt>
					<trkpt lat="48.677080" lon="-0.923870">
						<ele>291</ele>
						<time>2025-09-16T11:30:52Z</time>
					</trkpt>
					<trkpt lat="48.677650" lon="-0.924330">
						<ele>286</ele>
						<time>2025-09-16T11:31:24Z</time>
					</trkpt>
					<trkpt lat="48.677920" lon="-0.924650">
						<ele>282</ele>
						<time>2025-09-16T11:31:42Z</time>
					</trkpt>
					<trkpt lat="48.677880" lon="-0.924860">
						<ele>282</ele>
						<time>2025-09-16T11:31:49Z</time>
					</trkpt>
					<trkpt lat="48.678750" lon="-0.925570">
						<ele>277</ele>
						<time>2025-09-16T11:32:38Z</time>
					</trkpt>
					<trkpt lat="48.679370" lon="-0.926010">
						<ele>277</ele>
						<time>2025-09-16T11:33:13Z</time>
					</trkpt>
					<trkpt lat="48.680320" lon="-0.926560">
						<ele>277</ele>
						<time>2025-09-16T11:34:03Z</time>
					</trkpt>
					<trkpt lat="48.680670" lon="-0.926500">
						<ele>278</ele>
						<time>2025-09-16T11:34:21Z</time>
					</trkpt>
					<trkpt lat="48.681370" lon="-0.926190">
						<ele>281</ele>
						<time>2025-09-16T11:34:58Z</time>
					</trkpt>
					<trkpt lat="48.681420" lon="-0.926160">
						<ele>281</ele>
						<time>2025-09-16T11:35:00Z</time>
					</trkpt>
					<trkpt lat="48.681500" lon="-0.926240">
						<ele>281</ele>
						<time>2025-09-16T11:35:05Z</time>
					</trkpt>
					<trkpt lat="48.681890" lon="-0.926300">
						<ele>281</ele>
						<time>2025-09-16T11:35:25Z</time>
					</trkpt>
					<trkpt lat="48.682120" lon="-0.926390">
						<ele>280</ele>
						<time>2025-09-16T11:35:37Z</time>
					</trkpt>
					<trkpt lat="48.682370" lon="-0.926800">
						<ele>278</ele>
						<time>2025-09-16T11:35:55Z</time>
					</trkpt>
					<trkpt lat="48.682610" lon="-0.927440">
						<ele>275</ele>
						<time>2025-09-16T11:36:19Z</time>
					</trkpt>
					<trkpt lat="48.682710" lon="-0.927790">
						<ele>275</ele>
						<time>2025-09-16T11:36:32Z</time>
					</trkpt>
					<trkpt lat="48.682740" lon="-0.928060">
						<ele>274</ele>
						<time>2025-09-16T11:36:41Z</time>
					</trkpt>
					<trkpt lat="48.682600" lon="-0.928820">
						<ele>274</ele>
						<time>2025-09-16T11:37:07Z</time>
					</trkpt>
					<trkpt lat="48.682520" lon="-0.929500">
						<ele>275</ele>
						<time>2025-09-16T11:37:30Z</time>
					</trkpt>
					<trkpt lat="48.682520" lon="-0.930230">
						<ele>277</ele>
						<time>2025-09-16T11:37:54Z</time>
					</trkpt>
					<trkpt lat="48.682670" lon="-0.932010">
						<ele>276</ele>
						<time>2025-09-16T11:38:53Z</time>
					</trkpt>
					<trkpt lat="48.682720" lon="-0.931890">
						<ele>276</ele>
						<time>2025-09-16T11:38:58Z</time>
					</trkpt>
					<trkpt lat="48.683570" lon="-0.930530">
						<ele>278</ele>
						<time>2025-09-16T11:40:00Z</time>
					</trkpt>
					<trkpt lat="48.684590" lon="-0.929310">
						<ele>277</ele>
						<time>2025-09-16T11:41:05Z</time>
					</trkpt>
					<trkpt lat="48.684890" lon="-0.928770">
						<ele>277</ele>
						<time>2025-09-16T11:41:28Z</time>
					</trkpt>
					<trkpt lat="48.685110" lon="-0.928240">
						<ele>278</ele>
						<time>2025-09-16T11:41:49Z</time>
					</trkpt>
					<trkpt lat="48.685400" lon="-0.927570">
						<ele>280</ele>
						<time>2025-09-16T11:42:15Z</time>
					</trkpt>
					<trkpt lat="48.685680" lon="-0.927100">
						<ele>280</ele>
						<time>2025-09-16T11:42:36Z</time>
					</trkpt>
					<trkpt lat="48.685950" lon="-0.926540">
						<ele>281</ele>
						<time>2025-09-16T11:42:59Z</time>
					</trkpt>
					<trkpt lat="48.686410" lon="-0.925620">
						<ele>285</ele>
						<time>2025-09-16T11:43:37Z</time>
					</trkpt>
					<trkpt lat="48.686560" lon="-0.925100">
						<ele>286</ele>
						<time>2025-09-16T11:43:56Z</time>
					</trkpt>
					<trkpt lat="48.686600" lon="-0.924600">
						<ele>287</ele>
						<time>2025-09-16T11:44:13Z</time>
					</trkpt>
					<trkpt lat="48.687140" lon="-0.923720">
						<ele>293</ele>
						<time>2025-09-16T11:44:52Z</time>
					</trkpt>
					<trkpt lat="48.687420" lon="-0.923380">
						<ele>295</ele>
						<time>2025-09-16T11:45:10Z</time>
					</trkpt>
					<trkpt lat="48.688690" lon="-0.922340">
						<ele>295</ele>
						<time>2025-09-16T11:46:23Z</time>
					</trkpt>
					<trkpt lat="48.689780" lon="-0.921460">
						<ele>293</ele>
						<time>2025-09-16T11:47:24Z</time>
					</trkpt>
					<trkpt lat="48.690220" lon="-0.920850">
						<ele>295</ele>
						<time>2025-09-16T11:47:54Z</time>
					</trkpt>
					<trkpt lat="48.690610" lon="-0.920320">
						<ele>294</ele>
						<time>2025-09-16T11:48:20Z</time>
					</trkpt>
					<trkpt lat="48.690830" lon="-0.919860">
						<ele>294</ele>
						<time>2025-09-16T11:48:39Z</time>
					</trkpt>
					<trkpt lat="48.691450" lon="-0.918360">
						<ele>295</ele>
						<time>2025-09-16T11:49:38Z</time>
					</trkpt>
					<trkpt lat="48.691270" lon="-0.917870">
						<ele>293</ele>
						<time>2025-09-16T11:49:56Z</time>
					</trkpt>
					<trkpt lat="48.690460" lon="-0.917070">
						<ele>286</ele>
						<time>2025-09-16T11:50:45Z</time>
					</trkpt>
					<trkpt lat="48.690090" lon="-0.916690">
						<ele>284</ele>
						<time>2025-09-16T11:51:07Z</time>
					</trkpt>
					<trkpt lat="48.689800" lon="-0.916340">
						<ele>284</ele>
						<time>2025-09-16T11:51:25Z</time>
					</trkpt>
					<trkpt lat="48.689390" lon="-0.915630">
						<ele>283</ele>
						<time>2025-09-16T11:51:57Z</time>
					</trkpt>
					<trkpt lat="48.688930" lon="-0.914730">
						<ele>279</ele>
						<time>2025-09-16T11:52:34Z</time>
					</trkpt>
					<trkpt lat="48.688250" lon="-0.913970">
						<ele>277</ele>
						<time>2025-09-16T11:53:17Z</time>
					</trkpt>
					<trkpt lat="48.688040" lon="-0.913710">
						<ele>277</ele>
						<time>2025-09-16T11:53:30Z</time>
					</trkpt>
					<trkpt lat="48.687750" lon="-0.913200">
						<ele>278</ele>
						<time>2025-09-16T11:53:52Z</time>
					</trkpt>
					<trkpt lat="48.687410" lon="-0.911950">
						<ele>280</ele>
						<time>2025-09-16T11:54:37Z</time>
					</trkpt>
					<trkpt lat="48.686880" lon="-0.909770">
						<ele>278</ele>
						<time>2025-09-16T11:55:54Z</time>
					</trkpt>
					<trkpt lat="48.685960" lon="-0.908340">
						<ele>276</ele>
						<time>2025-09-16T11:57:00Z</time>
					</trkpt>
					<trkpt lat="48.685470" lon="-0.907620">
						<ele>276</ele>
						<time>2025-09-16T11:57:34Z</time>
					</trkpt>
					<trkpt lat="48.685030" lon="-0.907040">
						<ele>276</ele>
						<time>2025-09-16T11:58:03Z</time>
					</trkpt>
					<trkpt lat="48.684710" lon="-0.906500">
						<ele>276</ele>
						<time>2025-09-16T11:58:27Z</time>
					</trkpt>
					<trkpt lat="48.684080" lon="-0.905240">
						<ele>275</ele>
						<time>2025-09-16T11:59:19Z</time>
					</trkpt>
					<trkpt lat="48.683710" lon="-0.904060">
						<ele>274</ele>
						<time>2025-09-16T12:00:02Z</time>
					</trkpt>
					<trkpt lat="48.683300" lon="-0.906090">
						<ele>273</ele>
						<time>2025-09-16T12:01:13Z</time>
					</trkpt>
					<trkpt lat="48.682800" lon="-0.908760">
						<ele>270</ele>
						<time>2025-09-16T12:02:44Z</time>
					</trkpt>
					<trkpt lat="48.682550" lon="-0.910140">
						<ele>270</ele>
						<time>2025-09-16T12:03:32Z</time>
					</trkpt>
					<trkpt lat="48.682350" lon="-0.911070">
						<ele>267</ele>
						<time>2025-09-16T12:04:04Z</time>
					</trkpt>
					<trkpt lat="48.682180" lon="-0.911550">
						<ele>266</ele>
						<time>2025-09-16T12:04:22Z</time>
					</trkpt>
					<trkpt lat="48.681900" lon="-0.912200">
						<ele>266</ele>
						<time>2025-09-16T12:04:48Z</time>
					</trkpt>
					<trkpt lat="48.681580" lon="-0.912670">
						<ele>266</ele>
						<time>2025-09-16T12:05:10Z</time>
					</trkpt>
					<trkpt lat="48.681120" lon="-0.913140">
						<ele>265</ele>
						<time>2025-09-16T12:05:38Z</time>
					</trkpt>
					<trkpt lat="48.680690" lon="-0.913400">
						<ele>265</ele>
						<time>2025-09-16T12:06:01Z</time>
					</trkpt>
					<trkpt lat="48.680320" lon="-0.913540">
						<ele>266</ele>
						<time>2025-09-16T12:06:20Z</time>
					</trkpt>
					<trkpt lat="48.679910" lon="-0.913610">
						<ele>267</ele>
						<time>2025-09-16T12:06:40Z</time>
					</trkpt>
					<trkpt lat="48.679460" lon="-0.913570">
						<ele>268</ele>
						<time>2025-09-16T12:07:03Z</time>
					</trkpt>
					<trkpt lat="48.679130" lon="-0.913460">
						<ele>270</ele>
						<time>2025-09-16T12:07:20Z</time>
					</trkpt>
					<trkpt lat="48.678690" lon="-0.913240">
						<ele>269</ele>
						<time>2025-09-16T12:07:43Z</time>
					</trkpt>
					<trkpt lat="48.678220" lon="-0.912780">
						<ele>270</ele>
						<time>2025-09-16T12:08:11Z</time>
					</trkpt>
					<trkpt lat="48.677660" lon="-0.912090">
						<ele>268</ele>
						<time>2025-09-16T12:08:47Z</time>
					</trkpt>
					<trkpt lat="48.676540" lon="-0.910600">
						<ele>261</ele>
						<time>2025-09-16T12:10:02Z</time>
					</trkpt>
					<trkpt lat="48.676000" lon="-0.910070">
						<ele>261</ele>
						<time>2025-09-16T12:10:34Z</time>
					</trkpt>
					<trkpt lat="48.675660" lon="-0.909850">
						<ele>261</ele>
						<time>2025-09-16T12:10:53Z</time>
					</trkpt>
					<trkpt lat="48.675390" lon="-0.909680">
						<ele>261</ele>
						<time>2025-09-16T12:11:07Z</time>
					</trkpt>
					<trkpt lat="48.674730" lon="-0.909470">
						<ele>262</ele>
						<time>2025-09-16T12:11:41Z</time>
					</trkpt>
					<trkpt lat="48.673270" lon="-0.909320">
						<ele>259</ele>
						<time>2025-09-16T12:12:54Z</time>
					</trkpt>
					<trkpt lat="48.672400" lon="-0.909220">
						<ele>257</ele>
						<time>2025-09-16T12:13:38Z</time>
					</trkpt>
					<trkpt lat="48.671840" lon="-0.909190">
						<ele>259</ele>
						<time>2025-09-16T12:14:06Z</time>
					</trkpt>
					<trkpt lat="48.671300" lon="-0.909280">
						<ele>258</ele>
						<time>2025-09-16T12:14:33Z</time>
					</trkpt>
					<trkpt lat="48.670510" lon="-0.909590">
						<ele>257</ele>
						<time>2025-09-16T12:15:14Z</time>
					</trkpt>
					<trkpt lat="48.669900" lon="-0.910030">
						<ele>256</ele>
						<time>2025-09-16T12:15:48Z</time>
					</trkpt>
					<trkpt lat="48.669320" lon="-0.910730">
						<ele>257</ele>
						<time>2025-09-16T12:16:25Z</time>
					</trkpt>
					<trkpt lat="48.668730" lon="-0.911910">
						<ele>257</ele>
						<time>2025-09-16T12:17:14Z</time>
					</trkpt>
					<trkpt lat="48.668360" lon="-0.913170">
						<ele>257</ele>
						<time>2025-09-16T12:17:59Z</time>
					</trkpt>
					<trkpt lat="48.668050" lon="-0.914340">
						<ele>258</ele>
						<time>2025-09-16T12:18:41Z</time>
					</trkpt>
					<trkpt lat="48.667800" lon="-0.914160">
						<ele>258</ele>
						<time>2025-09-16T12:18:55Z</time>
					</trkpt>
					<trkpt lat="48.668370" lon="-0.912140">
						<ele>257</ele>
						<time>2025-09-16T12:20:07Z</time>
					</trkpt>
					<trkpt lat="48.668790" lon="-0.910680">
						<ele>259</ele>
						<time>2025-09-16T12:21:00Z</time>
					</trkpt>
					<trkpt lat="48.668860" lon="-0.909460">
						<ele>260</ele>
						<time>2025-09-16T12:21:41Z</time>
					</trkpt>
					<trkpt lat="48.668880" lon="-0.909130">
						<ele>260</ele>
						<time>2025-09-16T12:21:51Z</time>
					</trkpt>
					<trkpt lat="48.668960" lon="-0.908830">
						<ele>259</ele>
						<time>2025-09-16T12:22:02Z</time>
					</trkpt>
					<trkpt lat="48.668880" lon="-0.908590">
						<ele>259</ele>
						<time>2025-09-16T12:22:11Z</time>
					</trkpt>
					<trkpt lat="48.668720" lon="-0.907840">
						<ele>261</ele>
						<time>2025-09-16T12:22:37Z</time>
					</trkpt>
					<trkpt lat="48.668300" lon="-0.907480">
						<ele>267</ele>
						<time>2025-09-16T12:23:01Z</time>
					</trkpt>
					<trkpt lat="48.667640" lon="-0.907100">
						<ele>275</ele>
						<time>2025-09-16T12:23:37Z</time>
					</trkpt>
					<trkpt lat="48.667030" lon="-0.906750">
						<ele>277</ele>
						<time>2025-09-16T12:24:09Z</time>
					</trkpt>
					<trkpt lat="48.666410" lon="-0.906480">
						<ele>277</ele>
						<time>2025-09-16T12:24:42Z</time>
					</trkpt>
					<trkpt lat="48.665310" lon="-0.905940">
						<ele>285</ele>
						<time>2025-09-16T12:25:39Z</time>
					</trkpt>
					<trkpt lat="48.665060" lon="-0.905840">
						<ele>288</ele>
						<time>2025-09-16T12:25:52Z</time>
					</trkpt>
					<trkpt lat="48.664970" lon="-0.905780">
						<ele>289</ele>
						<time>2025-09-16T12:25:57Z</time>
					</trkpt>
					<trkpt lat="48.664810" lon="-0.905510">
						<ele>289</ele>
						<time>2025-09-16T12:26:09Z</time>
					</trkpt>
					<trkpt lat="48.664670" lon="-0.904950">
						<ele>288</ele>
						<time>2025-09-16T12:26:29Z</time>
					</trkpt>
					<trkpt lat="48.664170" lon="-0.903580">
						<ele>293</ele>
						<time>2025-09-16T12:27:21Z</time>
					</trkpt>
					<trkpt lat="48.663700" lon="-0.902940">
						<ele>296</ele>
						<time>2025-09-16T12:27:52Z</time>
					</trkpt>
					<trkpt lat="48.663540" lon="-0.902540">
						<ele>297</ele>
						<time>2025-09-16T12:28:08Z</time>
					</trkpt>
					<trkpt lat="48.663120" lon="-0.901110">
						<ele>299</ele>
						<time>2025-09-16T12:29:00Z</time>
					</trkpt>
					<trkpt lat="48.662830" lon="-0.900050">
						<ele>299</ele>
						<time>2025-09-16T12:29:38Z</time>
					</trkpt>
					<trkpt lat="48.662420" lon="-0.898540">
						<ele>300</ele>
						<time>2025-09-16T12:30:31Z</time>
					</trkpt>
					<trkpt lat="48.662240" lon="-0.897400">
						<ele>303</ele>
						<time>2025-09-16T12:31:10Z</time>
					</trkpt>
					<trkpt lat="48.662010" lon="-0.895710">
						<ele>303</ele>
						<time>2025-09-16T12:32:07Z</time>
					</trkpt>
					<trkpt lat="48.661790" lon="-0.893970">
						<ele>304</ele>
						<time>2025-09-16T12:33:06Z</time>
					</trkpt>
					<trkpt lat="48.661600" lon="-0.893920">
						<ele>305</ele>
						<time>2025-09-16T12:33:15Z</time>
					</trkpt>
					<trkpt lat="48.661390" lon="-0.893950">
						<ele>304</ele>
						<time>2025-09-16T12:33:26Z</time>
					</trkpt>
					<trkpt lat="48.661520" lon="-0.893240">
						<ele>304</ele>
						<time>2025-09-16T12:33:50Z</time>
					</trkpt>
					<trkpt lat="48.661270" lon="-0.893230">
						<ele>303</ele>
						<time>2025-09-16T12:34:03Z</time>
					</trkpt>
					<trkpt lat="48.660380" lon="-0.894290">
						<ele>302</ele>
						<time>2025-09-16T12:35:00Z</time>
					</trkpt>
					<trkpt lat="48.659560" lon="-0.895240">
						<ele>300</ele>
						<time>2025-09-16T12:35:51Z</time>
					</trkpt>
					<trkpt lat="48.659360" lon="-0.895450">
						<ele>299</ele>
						<time>2025-09-16T12:36:03Z</time>
					</trkpt>
					<trkpt lat="48.658820" lon="-0.895840">
						<ele>297</ele>
						<time>2025-09-16T12:36:33Z</time>
					</trkpt>
					<trkpt lat="48.658560" lon="-0.896290">
						<ele>297</ele>
						<time>2025-09-16T12:36:53Z</time>
					</trkpt>
					<trkpt lat="48.658400" lon="-0.896610">
						<ele>297</ele>
						<time>2025-09-16T12:37:06Z</time>
					</trkpt>
					<trkpt lat="48.658310" lon="-0.896890">
						<ele>297</ele>
						<time>2025-09-16T12:37:17Z</time>
					</trkpt>
					<trkpt lat="48.657860" lon="-0.896880">
						<ele>296</ele>
						<time>2025-09-16T12:37:39Z</time>
					</trkpt>
					<trkpt lat="48.657410" lon="-0.897050">
						<ele>295</ele>
						<time>2025-09-16T12:38:02Z</time>
					</trkpt>
					<trkpt lat="48.656540" lon="-0.897180">
						<ele>295</ele>
						<time>2025-09-16T12:38:46Z</time>
					</trkpt>
					<trkpt lat="48.655840" lon="-0.897630">
						<ele>292</ele>
						<time>2025-09-16T12:39:24Z</time>
					</trkpt>
					<trkpt lat="48.655240" lon="-0.897950">
						<ele>287</ele>
						<time>2025-09-16T12:39:56Z</time>
					</trkpt>
					<trkpt lat="48.654830" lon="-0.898620">
						<ele>284</ele>
						<time>2025-09-16T12:40:26Z</time>
					</trkpt>
					<trkpt lat="48.654470" lon="-0.898860">
						<ele>284</ele>
						<time>2025-09-16T12:40:46Z</time>
					</trkpt>
					<trkpt lat="48.654000" lon="-0.899150">
						<ele>286</ele>
						<time>2025-09-16T12:41:11Z</time>
					</trkpt>
					<trkpt lat="48.653750" lon="-0.898840">
						<ele>288</ele>
						<time>2025-09-16T12:41:27Z</time>
					</trkpt>
					<trkpt lat="48.652510" lon="-0.899100">
						<ele>298</ele>
						<time>2025-09-16T12:42:30Z</time>
					</trkpt>
					<trkpt lat="48.652390" lon="-0.898110">
						<ele>296</ele>
						<time>2025-09-16T12:43:03Z</time>
					</trkpt>
					<trkpt lat="48.649860" lon="-0.898160">
						<ele>305</ele>
						<time>2025-09-16T12:45:10Z</time>
					</trkpt>
					<trkpt lat="48.648540" lon="-0.897830">
						<ele>310</ele>
						<time>2025-09-16T12:46:17Z</time>
					</trkpt>
					<trkpt lat="48.647530" lon="-0.897670">
						<ele>309</ele>
						<time>2025-09-16T12:47:08Z</time>
					</trkpt>
					<trkpt lat="48.647500" lon="-0.901030">
						<ele>311</ele>
						<time>2025-09-16T12:48:59Z</time>
					</trkpt>
					<trkpt lat="48.646300" lon="-0.900740">
						<ele>309</ele>
						<time>2025-09-16T12:50:00Z</time>
					</trkpt>
					<trkpt lat="48.646200" lon="-0.901150">
						<ele>308</ele>
						<time>2025-09-16T12:50:14Z</time>
					</trkpt>
					<trkpt lat="48.645780" lon="-0.902060">
						<ele>304</ele>
						<time>2025-09-16T12:50:51Z</time>
					</trkpt>
					<trkpt lat="48.645290" lon="-0.902390">
						<ele>301</ele>
						<time>2025-09-16T12:51:18Z</time>
					</trkpt>
					<trkpt lat="48.645050" lon="-0.902620">
						<ele>299</ele>
						<time>2025-09-16T12:51:32Z</time>
					</trkpt>
					<trkpt lat="48.644800" lon="-0.902970">
						<ele>296</ele>
						<time>2025-09-16T12:51:49Z</time>
					</trkpt>
					<trkpt lat="48.644200" lon="-0.903440">
						<ele>291</ele>
						<time>2025-09-16T12:52:23Z</time>
					</trkpt>
					<trkpt lat="48.644290" lon="-0.903780">
						<ele>290</ele>
						<time>2025-09-16T12:52:35Z</time>
					</trkpt>
					<trkpt lat="48.644540" lon="-0.904250">
						<ele>289</ele>
						<time>2025-09-16T12:52:55Z</time>
					</trkpt>
					<trkpt lat="48.644620" lon="-0.904510">
						<ele>289</ele>
						<time>2025-09-16T12:53:04Z</time>
					</trkpt>
					<trkpt lat="48.644630" lon="-0.905000">
						<ele>289</ele>
						<time>2025-09-16T12:53:21Z</time>
					</trkpt>
					<trkpt lat="48.644540" lon="-0.906430">
						<ele>287</ele>
						<time>2025-09-16T12:54:08Z</time>
					</trkpt>
					<trkpt lat="48.644500" lon="-0.906800">
						<ele>286</ele>
						<time>2025-09-16T12:54:20Z</time>
					</trkpt>
					<trkpt lat="48.644560" lon="-0.907090">
						<ele>286</ele>
						<time>2025-09-16T12:54:30Z</time>
					</trkpt>
					<trkpt lat="48.644720" lon="-0.908430">
						<ele>286</ele>
						<time>2025-09-16T12:55:15Z</time>
					</trkpt>
					<trkpt lat="48.644730" lon="-0.908850">
						<ele>287</ele>
						<time>2025-09-16T12:55:29Z</time>
					</trkpt>
					<trkpt lat="48.644780" lon="-0.909360">
						<ele>288</ele>
						<time>2025-09-16T12:55:46Z</time>
					</trkpt>
					<trkpt lat="48.644710" lon="-0.909930">
						<ele>289</ele>
						<time>2025-09-16T12:56:06Z</time>
					</trkpt>
					<trkpt lat="48.644610" lon="-0.910540">
						<ele>288</ele>
						<time>2025-09-16T12:56:26Z</time>
					</trkpt>
					<trkpt lat="48.644620" lon="-0.911230">
						<ele>288</ele>
						<time>2025-09-16T12:56:49Z</time>
					</trkpt>
					<trkpt lat="48.644660" lon="-0.911760">
						<ele>288</ele>
						<time>2025-09-16T12:57:07Z</time>
					</trkpt>
					<trkpt lat="48.644680" lon="-0.912620">
						<ele>287</ele>
						<time>2025-09-16T12:57:35Z</time>
					</trkpt>
					<trkpt lat="48.644680" lon="-0.913260">
						<ele>287</ele>
						<time>2025-09-16T12:57:56Z</time>
					</trkpt>
					<trkpt lat="48.644990" lon="-0.914560">
						<ele>290</ele>
						<time>2025-09-16T12:58:42Z</time>
					</trkpt>
					<trkpt lat="48.644490" lon="-0.914670">
						<ele>293</ele>
						<time>2025-09-16T12:59:07Z</time>
					</trkpt>
					<trkpt lat="48.643880" lon="-0.914770">
						<ele>294</ele>
						<time>2025-09-16T12:59:38Z</time>
					</trkpt>
					<trkpt lat="48.643630" lon="-0.914820">
						<ele>295</ele>
						<time>2025-09-16T12:59:51Z</time>
					</trkpt>
					<trkpt lat="48.643370" lon="-0.914820">
						<ele>295</ele>
						<time>2025-09-16T13:00:04Z</time>
					</trkpt>
					<trkpt lat="48.642960" lon="-0.914710">
						<ele>295</ele>
						<time>2025-09-16T13:00:25Z</time>
					</trkpt>
					<trkpt lat="48.642530" lon="-0.914540">
						<ele>297</ele>
						<time>2025-09-16T13:00:47Z</time>
					</trkpt>
					<trkpt lat="48.641960" lon="-0.914350">
						<ele>296</ele>
						<time>2025-09-16T13:01:16Z</time>
					</trkpt>
					<trkpt lat="48.641570" lon="-0.914300">
						<ele>294</ele>
						<time>2025-09-16T13:01:36Z</time>
					</trkpt>
					<trkpt lat="48.641180" lon="-0.914400">
						<ele>288</ele>
						<time>2025-09-16T13:01:55Z</time>
					</trkpt>
					<trkpt lat="48.641170" lon="-0.914190">
						<ele>288</ele>
						<time>2025-09-16T13:02:02Z</time>
					</trkpt>
					<trkpt lat="48.641230" lon="-0.913770">
						<ele>291</ele>
						<time>2025-09-16T13:02:17Z</time>
					</trkpt>
					<trkpt lat="48.641180" lon="-0.913390">
						<ele>291</ele>
						<time>2025-09-16T13:02:29Z</time>
					</trkpt>
					<trkpt lat="48.640880" lon="-0.913010">
						<ele>289</ele>
						<time>2025-09-16T13:02:49Z</time>
					</trkpt>
					<trkpt lat="48.640830" lon="-0.912620">
						<ele>292</ele>
						<time>2025-09-16T13:03:02Z</time>
					</trkpt>
					<trkpt lat="48.640690" lon="-0.912180">
						<ele>292</ele>
						<time>2025-09-16T13:03:18Z</time>
					</trkpt>
					<trkpt lat="48.640100" lon="-0.911270">
						<ele>286</ele>
						<time>2025-09-16T13:04:00Z</time>
					</trkpt>
					<trkpt lat="48.639770" lon="-0.910790">
						<ele>286</ele>
						<time>2025-09-16T13:04:23Z</time>
					</trkpt>
					<trkpt lat="48.639450" lon="-0.910710">
						<ele>284</ele>
						<time>2025-09-16T13:04:40Z</time>
					</trkpt>
					<trkpt lat="48.639220" lon="-0.910760">
						<ele>282</ele>
						<time>2025-09-16T13:04:51Z</time>
					</trkpt>
					<trkpt lat="48.638670" lon="-0.911370">
						<ele>274</ele>
						<time>2025-09-16T13:05:25Z</time>
					</trkpt>
					<trkpt lat="48.638530" lon="-0.911420">
						<ele>272</ele>
						<time>2025-09-16T13:05:33Z</time>
					</trkpt>
					<trkpt lat="48.638140" lon="-0.911450">
						<ele>269</ele>
						<time>2025-09-16T13:05:52Z</time>
					</trkpt>
					<trkpt lat="48.637730" lon="-0.911310">
						<ele>266</ele>
						<time>2025-09-16T13:06:13Z</time>
					</trkpt>
					<trkpt lat="48.637330" lon="-0.911430">
						<ele>261</ele>
						<time>2025-09-16T13:06:33Z</time>
					</trkpt>
					<trkpt lat="48.636830" lon="-0.911290">
						<ele>257</ele>
						<time>2025-09-16T13:06:59Z</time>
					</trkpt>
					<trkpt lat="48.635620" lon="-0.911190">
						<ele>244</ele>
						<time>2025-09-16T13:08:00Z</time>
					</trkpt>
					<trkpt lat="48.633120" lon="-0.911220">
						<ele>224</ele>
						<time>2025-09-16T13:10:05Z</time>
					</trkpt>
					<trkpt lat="48.631920" lon="-0.911260">
						<ele>209</ele>
						<time>2025-09-16T13:11:05Z</time>
					</trkpt>
					<trkpt lat="48.630870" lon="-0.911610">
						<ele>199</ele>
						<time>2025-09-16T13:11:59Z</time>
					</trkpt>
					<trkpt lat="48.630760" lon="-0.911040">
						<ele>197</ele>
						<time>2025-09-16T13:12:18Z</time>
					</trkpt>
					<trkpt lat="48.629550" lon="-0.911450">
						<ele>180</ele>
						<time>2025-09-16T13:13:20Z</time>
					</trkpt>
					<trkpt lat="48.629250" lon="-0.911540">
						<ele>176</ele>
						<time>2025-09-16T13:13:36Z</time>
					</trkpt>
					<trkpt lat="48.629080" lon="-0.911690">
						<ele>174</ele>
						<time>2025-09-16T13:13:45Z</time>
					</trkpt>
					<trkpt lat="48.629050" lon="-0.911890">
						<ele>174</ele>
						<time>2025-09-16T13:13:52Z</time>
					</trkpt>
					<trkpt lat="48.629170" lon="-0.912510">
						<ele>174</ele>
						<time>2025-09-16T13:14:14Z</time>
					</trkpt>
					<trkpt lat="48.628630" lon="-0.912900">
						<ele>168</ele>
						<time>2025-09-16T13:14:43Z</time>
					</trkpt>
					<trkpt lat="48.628940" lon="-0.913950">
						<ele>167</ele>
						<time>2025-09-16T13:15:22Z</time>
					</trkpt>
					<trkpt lat="48.629020" lon="-0.914220">
						<ele>167</ele>
						<time>2025-09-16T13:15:31Z</time>
					</trkpt>
					<trkpt lat="48.629130" lon="-0.914570">
						<ele>167</ele>
						<time>2025-09-16T13:15:44Z</time>
					</trkpt>
					<trkpt lat="48.628700" lon="-0.914790">
						<ele>161</ele>
						<time>2025-09-16T13:16:07Z</time>
					</trkpt>
					<trkpt lat="48.627960" lon="-0.915180">
						<ele>152</ele>
						<time>2025-09-16T13:16:46Z</time>
					</trkpt>
					<trkpt lat="48.627310" lon="-0.915450">
						<ele>146</ele>
						<time>2025-09-16T13:17:20Z</time>
					</trkpt>
					<trkpt lat="48.626510" lon="-0.915870">
						<ele>137</ele>
						<time>2025-09-16T13:18:02Z</time>
					</trkpt>
					<trkpt lat="48.626800" lon="-0.916570">
						<ele>136</ele>
						<time>2025-09-16T13:18:29Z</time>
					</trkpt>
					<trkpt lat="48.627180" lon="-0.917210">
						<ele>137</ele>
						<time>2025-09-16T13:18:58Z</time>
					</trkpt>
					<trkpt lat="48.627340" lon="-0.917430">
						<ele>137</ele>
						<time>2025-09-16T13:19:09Z</time>
					</trkpt>
					<trkpt lat="48.627510" lon="-0.917710">
						<ele>137</ele>
						<time>2025-09-16T13:19:21Z</time>
					</trkpt>
					<trkpt lat="48.627730" lon="-0.917960">
						<ele>137</ele>
						<time>2025-09-16T13:19:35Z</time>
					</trkpt>
					<trkpt lat="48.628020" lon="-0.918140">
						<ele>138</ele>
						<time>2025-09-16T13:19:51Z</time>
					</trkpt>
					<trkpt lat="48.628440" lon="-0.918370">
						<ele>140</ele>
						<time>2025-09-16T13:20:13Z</time>
					</trkpt>
					<trkpt lat="48.628620" lon="-0.918950">
						<ele>140</ele>
						<time>2025-09-16T13:20:34Z</time>
					</trkpt>
					<trkpt lat="48.628900" lon="-0.919700">
						<ele>141</ele>
						<time>2025-09-16T13:21:03Z</time>
					</trkpt>
					<trkpt lat="48.629210" lon="-0.920580">
						<ele>144</ele>
						<time>2025-09-16T13:21:36Z</time>
					</trkpt>
					<trkpt lat="48.629360" lon="-0.921130">
						<ele>145</ele>
						<time>2025-09-16T13:21:55Z</time>
					</trkpt>
					<trkpt lat="48.629570" lon="-0.921220">
						<ele>146</ele>
						<time>2025-09-16T13:22:06Z</time>
					</trkpt>
					<trkpt lat="48.629870" lon="-0.921550">
						<ele>148</ele>
						<time>2025-09-16T13:22:25Z</time>
					</trkpt>
					<trkpt lat="48.630160" lon="-0.922140">
						<ele>148</ele>
						<time>2025-09-16T13:22:49Z</time>
					</trkpt>
					<trkpt lat="48.631540" lon="-0.924730">
						<ele>154</ele>
						<time>2025-09-16T13:24:39Z</time>
					</trkpt>
					<trkpt lat="48.632020" lon="-0.925530">
						<ele>154</ele>
						<time>2025-09-16T13:25:15Z</time>
					</trkpt>
					<trkpt lat="48.633030" lon="-0.927280">
						<ele>157</ele>
						<time>2025-09-16T13:26:32Z</time>
					</trkpt>
					<trkpt lat="48.634330" lon="-0.929330">
						<ele>163</ele>
						<time>2025-09-16T13:28:06Z</time>
					</trkpt>
					<trkpt lat="48.635300" lon="-0.930830">
						<ele>167</ele>
						<time>2025-09-16T13:29:15Z</time>
					</trkpt>
					<trkpt lat="48.635540" lon="-0.931130">
						<ele>167</ele>
						<time>2025-09-16T13:29:31Z</time>
					</trkpt>
					<trkpt lat="48.635850" lon="-0.931470">
						<ele>167</ele>
						<time>2025-09-16T13:29:50Z</time>
					</trkpt>
					<trkpt lat="48.636480" lon="-0.932080">
						<ele>169</ele>
						<time>2025-09-16T13:30:27Z</time>
					</trkpt>
					<trkpt lat="48.636920" lon="-0.932400">
						<ele>171</ele>
						<time>2025-09-16T13:30:52Z</time>
					</trkpt>
					<trkpt lat="48.637250" lon="-0.932480">
						<ele>174</ele>
						<time>2025-09-16T13:31:09Z</time>
					</trkpt>
					<trkpt lat="48.637550" lon="-0.932370">
						<ele>177</ele>
						<time>2025-09-16T13:31:24Z</time>
					</trkpt>
					<trkpt lat="48.637730" lon="-0.932230">
						<ele>178</ele>
						<time>2025-09-16T13:31:34Z</time>
					</trkpt>
					<trkpt lat="48.637590" lon="-0.931830">
						<ele>179</ele>
						<time>2025-09-16T13:31:49Z</time>
					</trkpt>
					<trkpt lat="48.637790" lon="-0.931520">
						<ele>182</ele>
						<time>2025-09-16T13:32:03Z</time>
					</trkpt>
					<trkpt lat="48.638240" lon="-0.930790">
						<ele>189</ele>
						<time>2025-09-16T13:32:36Z</time>
					</trkpt>
					<trkpt lat="48.638620" lon="-0.930240">
						<ele>195</ele>
						<time>2025-09-16T13:33:03Z</time>
					</trkpt>
					<trkpt lat="48.638520" lon="-0.929920">
						<ele>197</ele>
						<time>2025-09-16T13:33:14Z</time>
					</trkpt>
					<trkpt lat="48.638340" lon="-0.929460">
						<ele>198</ele>
						<time>2025-09-16T13:33:32Z</time>
					</trkpt>
					<trkpt lat="48.638080" lon="-0.928740">
						<ele>201</ele>
						<time>2025-09-16T13:33:59Z</time>
					</trkpt>
					<trkpt lat="48.639200" lon="-0.927730">
						<ele>219</ele>
						<time>2025-09-16T13:35:05Z</time>
					</trkpt>
					<trkpt lat="48.639980" lon="-0.927010">
						<ele>230</ele>
						<time>2025-09-16T13:35:50Z</time>
					</trkpt>
					<trkpt lat="48.640820" lon="-0.928410">
						<ele>235</ele>
						<time>2025-09-16T13:36:53Z</time>
					</trkpt>
					<trkpt lat="48.641240" lon="-0.929590">
						<ele>237</ele>
						<time>2025-09-16T13:37:37Z</time>
					</trkpt>
					<trkpt lat="48.641330" lon="-0.929800">
						<ele>238</ele>
						<time>2025-09-16T13:37:45Z</time>
					</trkpt>
					<trkpt lat="48.641420" lon="-0.929920">
						<ele>239</ele>
						<time>2025-09-16T13:37:51Z</time>
					</trkpt>
					<trkpt lat="48.641480" lon="-0.930030">
						<ele>239</ele>
						<time>2025-09-16T13:37:56Z</time>
					</trkpt>
					<trkpt lat="48.641440" lon="-0.930430">
						<ele>238</ele>
						<time>2025-09-16T13:38:09Z</time>
					</trkpt>
					<trkpt lat="48.641250" lon="-0.931060">
						<ele>236</ele>
						<time>2025-09-16T13:38:32Z</time>
					</trkpt>
					<trkpt lat="48.641070" lon="-0.931630">
						<ele>237</ele>
						<time>2025-09-16T13:38:53Z</time>
					</trkpt>
					<trkpt lat="48.641010" lon="-0.932020">
						<ele>237</ele>
						<time>2025-09-16T13:39:07Z</time>
					</trkpt>
					<trkpt lat="48.640980" lon="-0.932980">
						<ele>237</ele>
						<time>2025-09-16T13:39:38Z</time>
					</trkpt>
					<trkpt lat="48.641040" lon="-0.933530">
						<ele>238</ele>
						<time>2025-09-16T13:39:57Z</time>
					</trkpt>
					<trkpt lat="48.641220" lon="-0.934600">
						<ele>238</ele>
						<time>2025-09-16T13:40:33Z</time>
					</trkpt>
					<trkpt lat="48.641700" lon="-0.937360">
						<ele>232</ele>
						<time>2025-09-16T13:42:08Z</time>
					</trkpt>
					<trkpt lat="48.642200" lon="-0.939440">
						<ele>230</ele>
						<time>2025-09-16T13:43:21Z</time>
					</trkpt>
					<trkpt lat="48.642440" lon="-0.940430">
						<ele>228</ele>
						<time>2025-09-16T13:43:56Z</time>
					</trkpt>
					<trkpt lat="48.642630" lon="-0.940320">
						<ele>231</ele>
						<time>2025-09-16T13:44:06Z</time>
					</trkpt>
					<trkpt lat="48.642770" lon="-0.941040">
						<ele>228</ele>
						<time>2025-09-16T13:44:31Z</time>
					</trkpt>
					<trkpt lat="48.642970" lon="-0.941010">
						<ele>229</ele>
						<time>2025-09-16T13:44:41Z</time>
					</trkpt>
					<trkpt lat="48.643890" lon="-0.941000">
						<ele>232</ele>
						<time>2025-09-16T13:45:27Z</time>
					</trkpt>
					<trkpt lat="48.643840" lon="-0.940950">
						<ele>232</ele>
						<time>2025-09-16T13:45:30Z</time>
					</trkpt>
					<trkpt lat="48.643720" lon="-0.940930">
						<ele>232</ele>
						<time>2025-09-16T13:45:36Z</time>
					</trkpt>
					<trkpt lat="48.643830" lon="-0.940850">
						<ele>233</ele>
						<time>2025-09-16T13:45:42Z</time>
					</trkpt>
					<trkpt lat="48.644280" lon="-0.940730">
						<ele>234</ele>
						<time>2025-09-16T13:46:05Z</time>
					</trkpt>
					<trkpt lat="48.644900" lon="-0.940640">
						<ele>235</ele>
						<time>2025-09-16T13:46:36Z</time>
					</trkpt>
					<trkpt lat="48.644980" lon="-0.940770">
						<ele>233</ele>
						<time>2025-09-16T13:46:42Z</time>
					</trkpt>
					<trkpt lat="48.645570" lon="-0.940560">
						<ele>235</ele>
						<time>2025-09-16T13:47:12Z</time>
					</trkpt>
					<trkpt lat="48.645450" lon="-0.941140">
						<ele>229</ele>
						<time>2025-09-16T13:47:32Z</time>
					</trkpt>
					<trkpt lat="48.645090" lon="-0.941270">
						<ele>229</ele>
						<time>2025-09-16T13:47:51Z</time>
					</trkpt>
					<trkpt lat="48.645070" lon="-0.941430">
						<ele>228</ele>
						<time>2025-09-16T13:47:56Z</time>
					</trkpt>
					<trkpt lat="48.645270" lon="-0.941530">
						<ele>226</ele>
						<time>2025-09-16T13:48:07Z</time>
					</trkpt>
					<trkpt lat="48.645560" lon="-0.941680">
						<ele>225</ele>
						<time>2025-09-16T13:48:22Z</time>
					</trkpt>
					<trkpt lat="48.646100" lon="-0.942080">
						<ele>221</ele>
						<time>2025-09-16T13:48:52Z</time>
					</trkpt>
					<trkpt lat="48.646580" lon="-0.942520">
						<ele>218</ele>
						<time>2025-09-16T13:49:20Z</time>
					</trkpt>
					<trkpt lat="48.646380" lon="-0.942640">
						<ele>216</ele>
						<time>2025-09-16T13:49:31Z</time>
					</trkpt>
					<trkpt lat="48.646370" lon="-0.942800">
						<ele>214</ele>
						<time>2025-09-16T13:49:36Z</time>
					</trkpt>
					<trkpt lat="48.646520" lon="-0.942980">
						<ele>212</ele>
						<time>2025-09-16T13:49:46Z</time>
					</trkpt>
					<trkpt lat="48.646590" lon="-0.943180">
						<ele>210</ele>
						<time>2025-09-16T13:49:53Z</time>
					</trkpt>
					<trkpt lat="48.646690" lon="-0.943230">
						<ele>210</ele>
						<time>2025-09-16T13:49:59Z</time>
					</trkpt>
					<trkpt lat="48.646770" lon="-0.943340">
						<ele>209</ele>
						<time>2025-09-16T13:50:04Z</time>
					</trkpt>
					<trkpt lat="48.646790" lon="-0.943430">
						<ele>208</ele>
						<time>2025-09-16T13:50:07Z</time>
					</trkpt>
					<trkpt lat="48.647140" lon="-0.943590">
						<ele>208</ele>
						<time>2025-09-16T13:50:25Z</time>
					</trkpt>
					<trkpt lat="48.647570" lon="-0.943600">
						<ele>211</ele>
						<time>2025-09-16T13:50:47Z</time>
					</trkpt>
					<trkpt lat="48.648070" lon="-0.943560">
						<ele>212</ele>
						<time>2025-09-16T13:51:12Z</time>
					</trkpt>
					<trkpt lat="48.648330" lon="-0.944490">
						<ele>204</ele>
						<time>2025-09-16T13:51:45Z</time>
					</trkpt>
					<trkpt lat="48.648440" lon="-0.944970">
						<ele>201</ele>
						<time>2025-09-16T13:52:02Z</time>
					</trkpt>
					<trkpt lat="48.648440" lon="-0.945230">
						<ele>199</ele>
						<time>2025-09-16T13:52:11Z</time>
					</trkpt>
					</trkseg>
				</trk>
			</gpx>